x

8726520 - St. Petersburg, Fl (sapf1) Weather Station

2:54pm - Wed 23rd Apr 2014 All times are EDT. -4 hours from GMT.

  • Wind
    8mph, 14mph gusts
  • Sea Temp 76°f
  • Air Temp 74°f
  • Sea Pressure 1013.7mb
  • 8726520 - St. Petersburg, Fl
  • 8726520 - St. Petersburg, Fl

More Historic Weather Station data

Upgrade to MSW Pro to gain access to the past 30 days of data for over 8000 Wavebouys and Weather Stations around the globe.

Join Pro

Comparision Forecast

View Surf forecast
   
Wed 04/23 2:54pm 8 14 mph 1013.7mb 76f 74f
2:48pm 8 13 mph 1013.8mb 76f 74f
2:42pm 5 11 mph 1013.9mb 75f 74f
2:36pm 7 11 mph 1013.9mb 75f 74f
2:30pm 2 14 mph 1014mb 75f 74f
2:24pm 3 7 mph 1014.1mb 75f 74f
2:18pm 3 8 mph 1014.2mb 75f 75f
2:12pm 3 6 mph 1014.2mb 75f 74f
2:06pm 7 9 mph 1014.3mb 75f 73f
2:00pm 5 7 mph 1014.3mb 75f 73f
1:54pm 3 7 mph 1014.4mb 75f 74f
1:48pm 3 7 mph 1014.4mb 75f 74f
1:42pm 5 7 mph 1014.5mb 75f 74f
1:36pm 3 7 mph 1014.5mb 75f 74f
1:30pm 3 7 mph 1014.5mb 75f -
1:24pm 3 6 mph 1014.5mb 76f -
1:18pm 1 5 mph 1014.5mb - -
1:12pm  -  6 mph 1014.6mb - -
1:06pm 6 8 mph 1014.5mb - -
1:00pm 9 10 mph 1014.5mb 75f 74f
12:54pm 7 13 mph 1014.5mb 75f 74f
12:48pm 6 11 mph 1014.6mb 75f 74f
12:42pm 8 16 mph 1014.6mb 75f 74f
12:36pm 6 11 mph 1014.7mb 75f 74f
12:30pm 7 11 mph 1014.7mb 75f 74f
12:24pm 6 11 mph 1014.9mb 75f 74f
12:18pm 3 9 mph 1014.9mb 75f 74f
12:12pm 8 13 mph 1015mb 75f 73f
12:06pm 7 11 mph 1015mb 75f 74f
12:00pm 3 7 mph 1015.1mb 75f 74f
11:54am 5 10 mph 1015.2mb 75f 73f
11:48am 10 15 mph 1015.2mb 75f 73f
11:42am 6 9 mph 1015.1mb 75f 73f
11:36am 6 10 mph 1015.1mb 75f 73f
11:30am 6 9 mph 1015.2mb 75f 73f
11:24am 6 8 mph 1015.2mb 75f 73f
11:18am 6 10 mph 1015.2mb 75f 73f
11:12am 7 10 mph 1015.3mb 75f 73f
11:06am 6 10 mph 1015.3mb 75f 73f
11:00am 3 10 mph 1015.3mb 75f 72f
10:54am 6 13 mph 1015.3mb 75f 72f
10:48am 6 10 mph 1015.3mb 75f 72f
10:42am 9 11 mph 1015.3mb 75f 72f
10:36am 6 10 mph 1015.2mb 75f 72f
10:30am 6 11 mph - - 72f
10:24am 8 10 mph - - 72f
10:18am 5 8 mph - - 72f
10:12am 8 10 mph 1014.9mb 75f 71f
10:06am 5 8 mph 1014.9mb 75f 72f
10:00am 7 13 mph 1014.8mb 75f 71f
9:54am 5 8 mph 1014.8mb 75f 71f
9:48am 6 10 mph 1014.8mb 75f 71f
9:42am 7 10 mph 1014.7mb 75f 71f
9:36am 9 10 mph 1014.7mb 75f 70f
9:30am 3 9 mph 1014.7mb 75f 71f
9:24am 6 7 mph 1014.7mb 75f 71f
9:18am 3 6 mph 1014.6mb 75f 70f
9:12am 3 8 mph 1014.6mb 75f 70f
9:06am 6 9 mph 1014.6mb 75f 70f
9:00am 6 10 mph 1014.6mb 75f 70f
8:54am 3 6 mph 1014.6mb 75f 70f
8:48am 5 7 mph 1014.6mb 75f 70f
8:42am 6 8 mph 1014.6mb 75f 69f
8:36am 5 7 mph 1014.6mb 75f 69f
8:30am 1 5 mph 1014.5mb 75f 70f
8:24am 5 7 mph 1014.5mb 75f 69f
8:18am 3 6 mph 1014.5mb 75f 69f
8:12am 3 6 mph 1014.3mb 75f 69f
8:06am 5
mph
1014.4mb 75f 69f
8:00am 5 6 mph 1014.3mb 74f 68f
7:54am 2 3 mph 1014.3mb 74f 68f
7:48am 2 3 mph 1014.2mb 74f 68f
7:42am  -  2 mph 1014.1mb 74f 68f
7:36am 2 6 mph 1014.1mb 75f 68f
7:30am 3 6 mph 1014mb 75f 68f
7:24am 5 6 mph 1013.9mb 75f 67f
7:18am 3 6 mph 1013.9mb 75f 67f
7:12am 3 6 mph 1013.8mb 75f 67f
7:06am 5 6 mph 1013.7mb 75f 67f
7:00am 3 5 mph 1013.7mb 75f 67f
6:54am 5 6 mph 1013.6mb 75f 67f
6:48am 5 6 mph 1013.5mb 75f 67f
6:42am 3 6 mph 1013.4mb 75f 67f
6:36am 5 6 mph 1013.3mb 74f 67f
6:30am 5 7 mph 1013.2mb 74f 67f
6:24am 6 8 mph 1013.2mb 74f 67f
6:18am 6 8 mph 1013.1mb 74f 67f
6:12am 6 8 mph 1013.1mb 74f 67f
6:06am 6 7 mph 1013mb 74f 67f
6:00am 5 8 mph 1013mb 74f 67f
5:54am 6 8 mph 1012.9mb 74f 67f
5:48am 7 8 mph 1012.8mb 74f 67f
5:42am 6 8 mph 1012.8mb 74f 67f
5:36am 7 9 mph 1012.8mb 74f 67f
5:30am 6 7 mph 1012.8mb 74f 67f
5:24am 5 7 mph 1012.8mb 74f 67f
5:18am 6 8 mph 1012.7mb 74f 68f
5:12am 6 7 mph 1012.7mb 74f 67f
5:06am 5 7 mph 1012.6mb 74f 67f
5:00am 6 7 mph 1012.6mb 74f 67f
4:54am 6 8 mph 1012.6mb 74f 67f
4:48am 5 7 mph 1012.6mb 74f 67f
4:42am 5 8 mph 1012.5mb 74f 67f
4:36am 6 8 mph 1012.5mb 74f 67f
4:30am 5 6 mph 1012.5mb 74f 67f
4:24am 5 6 mph 1012.5mb 74f 67f
4:18am 5 6 mph 1012.5mb 74f 67f
4:12am 5 7 mph 1012.5mb 75f 67f
4:06am 6 7 mph 1012.6mb 75f 67f
4:00am 5 8 mph 1012.6mb 75f 67f
3:54am 6 8 mph 1012.6mb 75f 66f
3:48am 6 7 mph 1012.7mb 75f 66f
3:42am 5 6 mph 1012.7mb 75f 66f
3:36am 5 6 mph 1012.6mb 75f 66f
3:30am 5 6 mph 1012.6mb 75f 66f
3:24am 3
mph
1012.5mb 75f 66f
3:18am 3
mph
1012.5mb 75f 66f
3:12am 3 6 mph 1012.5mb 75f 66f
3:06am 3 6 mph 1012.6mb 75f 67f
3:00am 3 6 mph 1012.7mb 75f 67f
2:54am 3 5 mph 1012.8mb 75f 67f
2:48am 5 7 mph 1012.8mb 75f 67f
2:42am 5 7 mph 1012.8mb 75f 67f
2:36am 5 7 mph 1012.9mb 75f 67f
2:30am 5 8 mph 1012.9mb 75f 67f
2:24am 5 7 mph 1013mb 75f 67f
2:18am 5 6 mph 1013.1mb 75f 67f
2:12am 5 6 mph 1013.1mb 75f 67f
2:06am 3 5 mph 1013.2mb 75f 66f
2:00am 3 5 mph 1013.3mb 75f 66f
1:54am 3
mph
1013.3mb 75f 66f
1:48am 3 5 mph 1013.4mb 75f 66f
1:42am 3
mph
1013.4mb 75f 66f
1:36am 3 5 mph 1013.5mb 75f 66f
1:30am 3 5 mph 1013.5mb 75f 67f
1:24am 3 5 mph 1013.5mb 75f 66f
1:18am 3 5 mph 1013.6mb 75f 67f
1:12am 3 5 mph 1013.6mb 75f 67f
1:06am 3 5 mph 1013.6mb 75f 67f
1:00am 2 5 mph 1013.5mb 75f 67f
12:54am 3 6 mph 1013.5mb 75f 68f
12:48am 3 5 mph 1013.5mb 75f 68f
12:42am 3 5 mph 1013.6mb 75f 68f
12:36am 2
mph
1013.7mb 75f 67f
12:30am 2 3 mph 1013.7mb 75f 67f
12:24am 2 5 mph 1013.7mb 75f 68f
12:18am 3 6 mph 1013.6mb 75f 68f
12:12am 5 6 mph 1013.7mb 75f 68f
12:06am 3 6 mph 1013.8mb 75f 68f
12:00am 2 3 mph 1013.7mb 75f 67f
Tue 04/22 11:54pm 2 3 mph 1013.7mb 75f 67f
11:48pm 2 3 mph 1013.7mb 75f 67f
11:42pm 2
mph
1013.7mb 75f 67f
11:36pm 2 3 mph 1013.6mb 75f 67f
11:30pm 2 5 mph 1013.6mb 75f 68f
11:24pm 3 5 mph 1013.8mb 75f 68f
11:18pm 3 5 mph 1013.7mb 75f 68f
11:12pm 2 5 mph 1013.8mb 75f 68f
11:06pm 3
mph
1013.8mb 75f 68f
11:00pm 2 5 mph 1013.7mb 75f 68f
10:54pm 3 6 mph 1013.8mb 75f 68f
10:48pm 3 5 mph 1013.8mb 75f 68f
10:42pm 3 5 mph 1013.7mb 75f 68f
10:36pm 3 5 mph 1013.7mb 75f 68f
10:30pm 2 5 mph 1013.7mb 75f 68f
10:24pm 3 6 mph 1013.7mb 75f 68f
10:18pm 3 5 mph 1013.7mb 75f 69f
10:12pm 3 5 mph 1013.6mb 75f 69f
10:06pm 3 5 mph 1013.6mb 75f 69f
10:00pm 5 7 mph 1013.6mb 75f 69f
9:54pm 5 7 mph 1013.6mb 75f 69f
9:48pm 6 8 mph 1013.5mb 75f 69f
9:42pm 6 8 mph 1013.5mb 75f 69f
9:36pm 5 8 mph 1013.5mb 75f 69f
9:30pm 6 7 mph 1013.4mb 75f 69f
9:24pm 6 8 mph 1013.4mb 75f 69f
9:18pm 5 7 mph 1013.4mb 75f 69f
9:12pm 6 7 mph 1013.4mb 75f 69f
9:06pm 7 9 mph 1013.2mb 75f 69f
9:00pm 6 8 mph 1013.2mb 75f 69f
8:54pm 6 10 mph 1013.1mb 75f 69f
8:48pm 7 9 mph 1013mb 76f 69f
8:42pm 8 10 mph 1012.9mb 76f 69f
8:36pm 7 9 mph 1012.9mb 76f 69f
8:30pm 7 10 mph 1012.9mb 76f 69f
8:24pm 7 9 mph 1012.7mb 76f 69f
8:18pm 7 9 mph 1012.7mb 76f 70f
8:12pm 8 11 mph 1012.6mb 76f 70f
8:06pm 8 11 mph 1012.5mb 76f 70f
8:00pm 8 11 mph 1012.5mb 76f 70f
7:54pm 8 11 mph 1012.4mb 76f 70f
7:48pm 7 11 mph 1012.3mb 76f 70f
7:42pm 9 10 mph 1012.3mb 76f 70f
7:36pm 9 10 mph 1012.2mb 76f 70f
7:30pm 6 9 mph 1011.9mb 76f 70f
7:24pm 7 9 mph 1012mb 76f 70f
7:18pm 7 10 mph 1012mb 76f 71f
7:12pm 6 9 mph 1012mb 76f 71f
7:06pm 7 10 mph 1012mb 76f 71f
7:00pm 8 11 mph 1012.1mb 76f 71f
6:54pm 7 11 mph 1012.1mb 76f 71f
6:48pm 9 11 mph 1012.2mb 76f 71f
6:42pm 8 10 mph 1012.2mb 76f 71f
6:36pm 8 10 mph 1012.2mb 76f 72f
6:30pm 9 13 mph 1012.2mb 76f 71f
6:24pm 8 10 mph 1012.2mb 76f 71f
6:18pm 6 11 mph 1012.2mb 76f 72f
6:12pm 7 13 mph 1012.3mb 76f 72f
6:06pm 9 13 mph 1012.4mb 76f 72f
6:00pm 8 11 mph 1012.4mb 76f 72f
5:54pm 9 13 mph 1012.4mb 76f 72f
5:48pm 7 11 mph 1012.4mb 76f 72f
5:42pm 6 10 mph 1012.4mb 76f 72f
5:36pm 10 14 mph 1012.4mb 76f 72f
5:30pm 7 10 mph 1012.4mb 76f 72f
5:24pm 8 13 mph 1012.4mb 75f 72f
5:18pm 8 13 mph 1012.5mb 75f 72f
5:12pm 6 11 mph 1012.5mb 76f 72f
5:06pm 7 10 mph 1012.6mb 76f 72f
5:00pm 3 11 mph 1012.6mb 76f 73f
4:54pm 7 8 mph 1012.7mb 76f 73f
4:48pm 8 9 mph 1012.8mb 76f 72f
4:42pm 8 9 mph 1012.9mb 76f 72f
4:36pm 8 14 mph 1013mb 76f 72f
4:30pm 7 13 mph 1013mb 76f 72f
4:24pm 7 11 mph 1013mb 76f 72f
4:18pm 9 15 mph 1013.2mb 76f 72f
4:12pm 11 16 mph 1013.3mb 76f 72f
4:06pm 10 14 mph 1013.3mb 76f 72f
4:00pm 11 15 mph 1013.4mb 76f 72f
3:54pm 11 16 mph 1013.5mb 76f 72f
3:48pm 6 14 mph 1013.6mb 75f 72f
3:42pm 9 14 mph 1013.7mb 75f 72f
3:36pm 9 14 mph 1013.7mb 75f 72f
3:30pm 8 13 mph 1013.8mb 75f 73f
3:24pm 9 13 mph 1013.8mb 75f 72f
3:18pm 9 13 mph 1013.8mb 75f 72f
3:12pm 6 13 mph 1013.9mb 75f 73f
3:06pm 9 13 mph 1013.9mb 75f 72f
3:00pm 6 13 mph 1014mb 75f 73f
2:54pm 8 13 mph 1014mb 75f 72f
2:48pm 6 10 mph 1014mb 75f 73f
2:42pm 7 9 mph 1014.1mb 75f 73f
2:36pm 6 9 mph 1014.2mb 75f 72f
2:30pm 8 11 mph 1014.4mb 75f 72f
2:24pm 9 11 mph 1014.5mb 75f 72f
2:18pm 8 13 mph 1014.6mb 75f 72f
2:12pm 8 13 mph 1014.8mb 76f 72f
2:06pm 9 13 mph 1014.9mb 76f 72f
2:00pm 8 13 mph 1014.9mb 76f 72f
1:54pm 7 11 mph 1014.9mb 76f 72f
1:48pm 8 11 mph 1015mb 76f 72f
1:42pm 7 13 mph 1015mb 76f 72f
1:36pm 6 10 mph 1015mb 76f 72f
1:30pm 8 13 mph 1015.1mb 76f 72f
1:24pm 9 13 mph 1015.1mb 76f 72f
1:18pm 9 11 mph 1015.2mb 75f 72f
1:12pm 10 13 mph 1015.2mb 75f 72f
1:06pm 6 9 mph 1015.2mb 75f 72f
1:00pm 9 10 mph 1015.3mb 75f 71f
12:54pm 8 10 mph 1015.2mb 75f 72f
12:48pm 7 9 mph 1015.2mb 75f 71f
12:42pm 6 9 mph 1015.2mb 75f 72f
12:36pm 6 9 mph 1015.3mb 75f 72f
12:30pm 6 10 mph 1015.3mb 75f 71f
12:24pm 7 10 mph 1015.4mb 75f 71f
12:18pm 7 8 mph 1015.5mb 75f 71f
12:12pm 6 9 mph 1015.6mb 75f 71f
12:06pm 5 9 mph 1015.6mb 75f 71f
12:00pm 8 10 mph 1015.7mb 75f 71f
11:54am 8 9 mph 1015.7mb 75f 71f
11:48am 7 10 mph 1015.7mb 75f 71f
11:42am 8 10 mph 1015.8mb 75f 71f
11:36am 6 9 mph 1015.7mb 75f 71f
11:30am 7 10 mph 1015.7mb 75f 71f
11:24am 5 9 mph 1015.8mb 75f 71f
11:18am 6 9 mph 1015.8mb 75f 71f
11:12am 6 8 mph 1015.7mb 75f 71f
11:06am 8 9 mph 1015.8mb 75f 70f
11:00am 5 9 mph 1015.8mb 75f 70f
10:54am 5 7 mph 1016mb 75f 70f
10:48am 6 9 mph 1015.9mb 75f 70f
10:42am 7 8 mph 1015.9mb 75f 70f
10:36am 5 7 mph 1016mb 75f 69f
10:30am 5 8 mph 1016mb 75f 69f
10:24am 6 7 mph 1015.9mb 75f 69f
10:18am 5 7 mph 1015.9mb 75f 69f
10:12am 3 6 mph 1015.9mb 75f 69f
10:06am 5 7 mph 1015.8mb 75f 68f
10:00am 2 3 mph 1015.8mb 75f 69f
9:54am 2 6 mph 1015.7mb 75f 68f
9:48am 2 3 mph 1015.7mb 75f 68f
9:42am 2 5 mph 1015.7mb 75f 68f
9:36am 1 2 mph 1015.6mb 75f 68f
9:30am 1
mph
1015.6mb 75f 68f
9:24am  -  2 mph 1015.5mb 75f 68f
9:18am  -  3 mph 1015.5mb 75f 67f
9:12am 2 5 mph 1015.4mb 75f 67f
9:06am 2 5 mph 1015.4mb 75f 67f
9:00am 2 3 mph 1015.3mb 75f 67f
8:54am 3 5 mph 1015.2mb 75f 66f
8:48am 2 5 mph - - -
8:42am 5 6 mph 1015.2mb 75f 66f
8:36am 3 6 mph 1015.3mb 75f 66f
8:30am 5 6 mph 1015.3mb 75f 66f
8:24am 6 7 mph 1015.4mb 75f 65f
8:18am 6 8 mph 1015.3mb 75f 65f
8:12am 6 7 mph 1015.2mb 75f 65f
8:06am 5 6 mph 1015.1mb 75f 65f
8:00am 5 6 mph 1015mb 75f 65f
7:54am 3 7 mph 1015.1mb 75f 65f
7:48am 5 6 mph 1015.2mb 75f 65f
7:42am 3 6 mph 1015.2mb 75f 65f
7:36am 2 3 mph 1015.2mb 75f 66f
7:30am 2 3 mph 1015.1mb 75f 65f
7:24am 2 5 mph 1015.2mb 75f 65f
7:18am 2 5 mph 1015.1mb 75f 65f
7:12am 3 5 mph 1015mb 75f 65f
7:06am 3 5 mph 1015mb 75f 65f
7:00am 3 5 mph 1015mb 75f 65f
6:54am 2 3 mph 1014.8mb 75f 65f
6:48am  -  1 mph 1014.6mb 75f 66f
6:42am 1 2 mph 1014.7mb 75f 66f
6:36am 2
mph
1014.6mb 75f 66f
6:30am 2
mph
1014.6mb 75f 67f
6:24am 1 2 mph 1014.5mb 75f 67f
6:18am  -  2 mph 1014.5mb 75f 67f
6:12am 1 2 mph 1014.4mb 75f 67f
6:06am 2 3 mph 1014.5mb 75f 67f
6:00am 2 3 mph 1014.4mb 75f 67f
5:54am  -  3 mph 1014.4mb 75f 67f
5:48am 2 3 mph 1014.2mb 75f 67f
5:42am 2 3 mph 1014mb 75f 67f
5:36am 2 6 mph 1014mb 75f 67f
5:30am 1 6 mph 1014mb 75f 67f
5:24am 3 6 mph 1014.1mb 75f 67f
5:18am 2 7 mph 1014mb 75f 67f
5:12am 3 7 mph 1014mb 75f 67f
5:06am 3 6 mph 1014.1mb 75f 67f
5:00am 2 6 mph 1014.1mb 75f 67f
4:54am 2 6 mph 1014mb 75f 67f
4:48am 3 7 mph 1014mb 75f 67f
4:42am 5 7 mph 1014mb 75f 67f
4:36am 5 7 mph 1014mb 75f 67f
4:30am 2 7 mph 1014mb 75f 67f
4:24am 3 6 mph 1014mb 75f 67f
4:18am 2 6 mph 1014mb 75f 67f
4:12am 2 6 mph 1014mb 75f 67f
4:06am 3 6 mph 1014.1mb 75f 67f
4:00am 3 6 mph 1014.2mb 75f 67f
3:54am 3 6 mph 1014.2mb 75f 67f
3:48am 3 6 mph 1014.2mb 75f 67f
3:42am 3 6 mph 1014.3mb 75f 67f
3:36am 3 6 mph 1014.4mb 75f 67f
3:30am 3 6 mph 1014.4mb 75f 67f
3:24am 2 6 mph 1014.4mb 75f 67f
3:18am 1 5 mph 1014.3mb 75f 67f
3:12am 2 7 mph 1014.2mb 75f 67f
3:06am 2 6 mph 1014.2mb 75f 67f
3:00am 2 3 mph 1014.3mb 75f 67f
2:54am 1 3 mph 1014.3mb 75f 67f
2:48am 1 5 mph 1014.5mb 75f 67f
2:42am 1 5 mph 1014.5mb 75f 67f
2:36am 2 6 mph 1014.6mb 75f 68f
2:30am 5 7 mph 1014.6mb 75f 68f
2:24am 5 7 mph 1014.6mb 75f 68f
2:18am 3 8 mph 1014.7mb 75f 68f
2:12am 2 5 mph 1014.7mb 75f 67f
2:06am 2 3 mph 1014.7mb 75f 67f
2:00am 2 5 mph 1014.9mb 75f 67f
1:54am 3 6 mph 1015mb 75f 67f
1:48am 2 5 mph 1015.3mb 75f 67f
1:42am 3 6 mph 1015.4mb 75f 67f
1:36am 3 5 mph 1015.4mb 75f 67f
1:30am 2 5 mph 1015.4mb 75f 66f
1:24am 2 5 mph 1015.5mb 75f 66f
1:18am 3 5 mph 1015.5mb 75f 66f
1:12am 3 6 mph 1015.5mb 75f 66f
1:06am 3 6 mph 1015.7mb 75f 67f
1:00am 5 6 mph 1015.8mb 75f 67f
12:54am 3 6 mph 1015.9mb 75f 67f
12:48am 5 6 mph 1015.9mb 75f 67f
12:42am 3 6 mph 1015.9mb 75f 67f
12:36am 3 6 mph 1016.1mb 75f 67f
12:30am 5 7 mph 1016.1mb 75f 67f
12:24am 3 6 mph 1016.2mb 75f 67f
12:18am 2 5 mph 1016.3mb 75f 67f
12:12am 3 6 mph 1016.2mb 75f 67f
12:06am 3 5 mph 1016.2mb 75f 67f
12:00am 3 5 mph 1016.3mb 75f 67f
Mon 04/21 11:54pm 3 6 mph 1016.5mb 75f 67f
11:48pm 3 6 mph 1016.6mb 75f 67f
11:42pm 3 6 mph 1016.6mb 75f 67f
11:36pm 5 6 mph 1016.6mb 75f 67f
11:30pm 3 6 mph 1016.6mb 75f 68f
11:24pm 3 5 mph 1016.6mb 75f 68f
11:18pm 3 6 mph 1016.7mb 75f 68f
11:12pm 5 6 mph 1016.7mb 75f 68f
11:06pm 2 6 mph 1016.7mb 75f 68f
11:00pm 5 8 mph 1016.7mb 75f 68f
10:54pm 5 9 mph 1016.7mb 75f 68f
10:48pm 6 7 mph 1016.7mb 75f 68f
10:42pm 6 7 mph 1016.7mb 75f 68f
10:36pm 6 7 mph 1016.7mb 75f 68f
10:30pm 7 8 mph 1016.8mb 75f 69f
10:24pm 5 8 mph 1016.8mb 75f 69f
10:18pm 6 8 mph 1016.7mb 75f 69f
10:12pm 6 8 mph 1016.6mb 75f 69f
10:06pm 6 7 mph 1016.6mb 75f 69f
10:00pm 5 8 mph 1016.6mb 75f 69f
9:54pm 5 9 mph 1016.5mb 76f 69f
9:48pm 5 9 mph 1016.4mb 76f 69f
9:42pm 6 11 mph 1016.3mb 76f 69f
9:36pm 5 9 mph 1016.3mb 76f 69f
9:30pm 6 11 mph 1016.4mb 76f 69f
9:24pm 6 11 mph 1016.4mb 76f 69f
9:18pm 7 11 mph 1016.4mb 76f 69f
9:12pm 8 11 mph 1016.3mb 76f 69f
9:06pm 7 10 mph 1016.2mb 76f 69f
9:00pm 6 11 mph 1016.1mb 76f 69f
8:54pm 6 10 mph 1016mb 76f 70f
8:48pm 6 10 mph 1015.9mb 76f 70f
8:42pm 6 9 mph 1015.8mb 76f 70f
8:36pm 6 9 mph 1015.7mb 76f 69f
8:30pm 5 8 mph 1015.8mb 76f 69f
8:24pm 7 9 mph 1015.8mb 76f 69f
8:18pm 5 8 mph 1015.7mb 76f 69f
8:12pm 7 9 mph 1015.7mb 76f 69f
8:06pm 6 9 mph 1015.7mb 76f 69f
8:00pm 6 8 mph 1015.6mb 76f 69f
7:54pm 6 9 mph 1015.7mb 76f 70f
7:48pm 6 9 mph 1015.6mb 76f 70f
7:42pm 5 8 mph 1015.5mb 76f 70f
7:36pm 5 9 mph 1015.4mb 76f 71f
7:30pm 5 8 mph 1015.4mb 76f 71f
7:24pm 6 9 mph 1015.3mb 76f 71f
7:18pm 7 9 mph 1015.4mb 76f 71f
7:12pm 7 10 mph 1015.3mb 76f 72f
7:06pm 6 7 mph 1015.3mb 76f 72f
7:00pm 5 7 mph 1015.3mb 76f 73f
6:54pm 5 8 mph 1015.4mb 76f 73f
6:48pm 5 7 mph 1015.4mb 75f 72f
6:42pm 3 6 mph 1015.6mb 75f 71f
6:36pm 2 5 mph 1015.6mb 75f 71f
6:30pm 2 5 mph 1015.6mb 75f 71f
6:24pm 3 8 mph 1015.6mb 75f 70f
6:18pm 3 6 mph 1015.6mb 75f 70f
6:12pm 5 6 mph 1015.6mb 75f 70f
6:06pm 3 5 mph 1015.7mb 75f 71f
6:00pm 2 5 mph 1015.7mb 75f 71f
5:54pm 2 3 mph 1015.7mb 75f 71f
5:48pm 2 5 mph 1015.8mb 75f 71f
5:42pm 2 5 mph 1015.8mb 75f 70f
5:36pm 2 5 mph 1015.9mb 75f 71f
5:30pm 2 5 mph 1015.9mb 75f 71f
5:24pm 2 5 mph 1015.9mb 75f 71f
5:18pm 1 6 mph 1015.9mb 75f 71f
5:12pm 2 6 mph 1015.9mb 75f 71f
5:06pm 5 8 mph 1016mb 75f 70f
5:00pm 3 7 mph 1016mb 75f 72f
4:54pm 2 7 mph 1016mb 75f 71f
4:48pm 3 7 mph 1016mb 75f 72f
4:42pm 5 8 mph 1016mb 75f 72f
4:36pm 5 8 mph 1016mb 75f 72f
4:30pm 6 7 mph 1016.1mb 75f 71f
4:24pm 3 6 mph 1016.1mb 75f 72f
4:18pm 5 7 mph 1016.2mb 75f 72f
4:12pm 5 8 mph 1016.2mb 75f 71f
4:06pm 3 9 mph 1016.3mb 75f 72f
4:00pm 3 9 mph 1016.3mb 75f 72f
3:54pm 3 9 mph 1016.4mb 75f 72f
3:48pm 6 10 mph 1016.5mb 75f 72f
3:42pm 7 10 mph 1016.6mb 75f 73f
3:36pm 6 9 mph 1016.6mb 75f 72f
3:30pm 5 11 mph 1016.6mb 75f 72f
3:24pm 7 10 mph 1016.7mb 75f 71f
3:18pm 5 11 mph 1016.8mb 75f 72f
3:12pm 6 10 mph 1016.9mb 75f 72f
3:06pm 5 11 mph 1016.9mb 75f 71f
3:00pm 5 9 mph 1017mb 75f 71f
2:54pm 6 9 mph 1017.1mb 75f 71f
2:48pm 3 10 mph 1017.1mb 75f 71f
2:42pm 5 9 mph 1017.2mb 75f 71f
2:36pm 5 8 mph 1017.2mb 75f 70f
2:30pm 5 8 mph 1017.3mb 75f 69f
2:24pm 3 6 mph 1017.5mb 75f 70f
2:18pm 5 10 mph 1017.6mb 75f 70f
2:12pm 5 10 mph 1017.6mb 75f 70f
2:06pm 6 10 mph 1017.7mb 75f 70f
2:00pm 6 9 mph 1017.9mb 75f 69f
1:54pm 6 9 mph 1018mb 75f 68f
1:42pm 3 8 mph 1018.2mb 75f 69f
1:36pm 8 11 mph 1018.3mb 75f 69f
1:30pm 6 9 mph 1018.3mb 75f 68f
1:24pm 2 7 mph 1018.5mb 75f 68f
1:18pm 6 13 mph 1018.5mb 75f 68f
1:12pm 6 9 mph 1018.6mb 75f 67f
1:06pm 5 10 mph 1018.7mb 75f 68f
1:00pm 6 9 mph 1018.6mb 75f 67f
12:54pm 6 9 mph 1018.6mb 75f 67f
12:48pm 8 10 mph 1018.7mb 75f 66f
12:42pm 6 9 mph 1018.7mb 75f 67f
12:36pm 5 8 mph 1018.9mb 75f 66f
12:30pm 6 10 mph 1019mb 75f 66f
12:24pm 7 10 mph 1019mb 75f 65f
12:18pm 5 7 mph 1019mb 75f 66f
12:12pm 5 11 mph 1019.1mb 75f 66f
12:06pm 6 9 mph 1019.1mb 75f 66f
12:00pm 7 10 mph 1019.1mb 74f 66f
11:54am 6 8 mph 1019.1mb 74f 66f
11:48am 6 9 mph 1019.1mb 75f 65f
11:42am 6 9 mph 1019.2mb 74f 65f
11:36am 3 9 mph 1019.3mb 74f 65f
11:30am 7 10 mph 1019.4mb 74f 65f
11:24am 7 11 mph 1019.4mb 74f 65f
11:18am 5 10 mph 1019.4mb 74f 65f
11:12am 3 7 mph 1019.4mb 74f 65f
11:06am 3 9 mph 1019.4mb 74f 65f
11:00am 6 9 mph 1019.5mb 74f 65f
10:54am 6 9 mph 1019.5mb 74f 65f
10:48am 8 11 mph 1019.5mb 74f 64f
10:42am 6 9 mph 1019.5mb 74f 64f
10:36am 8 10 mph 1019.6mb 74f 64f
10:30am 6 8 mph 1019.6mb 74f 64f
10:24am 6 8 mph 1019.6mb 74f 64f
10:18am 6 8 mph 1019.6mb 74f 64f
10:12am 6 8 mph 1019.6mb 74f 64f
10:06am 6 9 mph 1019.5mb 74f 64f
10:00am 6 8 mph 1019.4mb 74f 64f
9:54am 3 7 mph 1019.5mb 74f 64f
9:48am 6 9 mph 1019.5mb 74f 64f
9:42am 6 8 mph 1019.4mb 74f 64f
9:36am 3 8 mph 1019.3mb 74f 64f
9:30am 6 9 mph 1019.3mb 74f 64f
9:24am 6 9 mph 1019.3mb 74f 64f
9:18am 6 9 mph 1019.3mb 74f 63f
9:12am 6 10 mph 1019.3mb 74f 64f
9:06am 6 8 mph 1019.3mb 74f 64f
9:00am 7 9 mph 1019.3mb 74f 64f
8:54am 5 7 mph 1019.2mb 74f 64f
8:48am 6 8 mph 1019.2mb 74f 64f
8:42am 6 8 mph 1019.1mb 74f 63f
8:36am 6 8 mph 1019.1mb 74f 64f
8:30am 5 9 mph 1019.1mb 74f 64f
8:24am 3 7 mph 1019.1mb 74f 64f
8:18am 5 7 mph 1019.2mb 74f 64f
8:12am 5 7 mph 1019.1mb 74f 64f
8:06am 5 7 mph 1019mb 74f 64f
8:00am 5 8 mph 1019mb 74f 64f
7:54am 1 7 mph 1019mb 74f 63f
7:48am 5 8 mph 1018.9mb 74f 64f
7:42am 5 9 mph 1019mb 74f 63f
7:36am 5 10 mph 1019mb 74f 64f
7:30am 6 9 mph 1019mb 74f 64f
7:24am 6 9 mph 1018.9mb 74f 64f
7:18am 6 9 mph 1018.8mb 74f 64f
7:12am 6 8 mph 1018.8mb 74f 64f
7:06am 6 9 mph 1018.7mb 74f 64f
7:00am 5 9 mph 1018.6mb 75f 64f
6:54am 6 10 mph 1018.5mb 75f 64f
6:48am 6 10 mph 1018.4mb 74f 64f
6:42am 5 10 mph 1018.4mb 74f 64f
6:36am 5 9 mph 1018.3mb 74f 64f
6:30am 6 10 mph 1018.2mb 74f 63f
6:24am 5 8 mph 1018.1mb 75f 64f
6:18am 3 13 mph 1018mb 75f 63f
6:12am 7 11 mph 1018mb 75f 63f
6:06am 6 9 mph 1018mb 75f 64f
6:00am 3 9 mph 1018mb 75f 64f
5:54am 5 10 mph 1018mb 75f 64f
5:48am 6 9 mph 1018mb 75f 64f
5:42am 6 10 mph 1017.9mb 75f 64f
5:36am 6 11 mph 1017.9mb 75f 64f
5:30am 7 11 mph 1017.9mb 75f 64f
5:24am 8 13 mph 1017.9mb 75f 64f
5:18am 7 11 mph 1018mb 75f 64f
5:12am 5 11 mph 1018mb 75f 64f
5:06am 7 11 mph 1018mb 75f 63f
5:00am 5 8 mph 1017.9mb 75f 64f
4:54am 6 10 mph 1017.9mb 75f 63f
4:48am 6 8 mph 1017.9mb 75f 63f
4:42am 6 9 mph 1017.9mb 75f 64f
4:36am 3 9 mph 1017.9mb 75f 64f
4:30am 3 8 mph 1017.9mb 75f 64f
4:24am 5 10 mph 1018mb 75f 64f
4:18am 7 13 mph 1018.1mb 75f 64f
4:12am 3 10 mph 1018.1mb 75f 64f
4:06am 7 10 mph 1018mb 75f 63f
4:00am 5 11 mph 1018mb 75f 64f
3:54am 7 11 mph 1018mb 75f 64f
3:48am 7 11 mph 1018mb 75f 64f
3:42am 6 13 mph 1018mb 75f 64f
3:36am 7 11 mph 1018mb 75f 64f
3:30am 6 10 mph 1018mb 75f 64f
3:24am 7 14 mph 1018mb 75f 64f
3:18am 8 13 mph 1017.8mb 75f 64f
3:12am 7 11 mph 1017.8mb 75f 64f
3:06am 7 14 mph 1017.8mb 75f 64f
3:00am 7 13 mph 1017.9mb 75f 64f
2:54am 7 10 mph 1018mb 75f 64f
2:48am 7 11 mph 1018.1mb 75f 64f
2:42am 7 13 mph 1018.1mb 75f 64f
2:36am 7 10 mph 1018.1mb 75f 64f
2:30am 7 10 mph 1018.1mb 75f 64f
2:24am 7 11 mph 1018.2mb 75f 64f
2:18am 6 14 mph - - -
2:12am 7 11 mph 1018.4mb 75f 64f
2:06am 6 11 mph 1018.5mb 75f 64f
2:00am 7 11 mph 1018.5mb 75f 64f
1:54am 7 11 mph 1018.5mb 75f 64f
1:48am 6 11 mph 1018.6mb 75f 64f
1:42am 7 13 mph 1018.7mb 75f 64f
1:36am 7 13 mph 1018.7mb 75f 64f
1:30am 6 10 mph 1018.8mb 75f 64f
1:24am 7 11 mph 1018.8mb 75f 64f
1:18am 7 11 mph 1018.8mb 75f 64f
1:12am 7 11 mph 1018.9mb 75f 64f
1:06am 8 13 mph 1018.9mb 75f 64f
1:00am 8 13 mph 1019mb 75f 64f
12:54am 7 13 mph 1019.1mb 75f 65f
12:48am 7 11 mph 1019.1mb 75f 65f
12:42am 7 14 mph 1019.1mb 75f 65f
12:36am 6 14 mph 1019.1mb 75f 65f
12:30am 6 13 mph 1019.1mb 75f 65f
12:24am 8 13 mph 1019.1mb 75f 65f
12:18am 7 13 mph 1019.1mb 75f 65f
12:12am 7 13 mph 1019mb 75f 65f
12:06am 7 11 mph 1018.9mb 75f 65f
12:00am 7 13 mph 1018.9mb 76f 65f
Sun 04/20 11:54pm 7 13 mph 1018.9mb 76f 65f
11:48pm 7 11 mph 1018.8mb 76f 66f
11:42pm 7 13 mph 1018.9mb 76f 66f
11:36pm 7 13 mph 1018.9mb 76f 66f
11:30pm 8 10 mph 1018.8mb 76f 65f
11:24pm 7 9 mph 1018.8mb 76f 65f
11:18pm 7 9 mph 1018.9mb 76f 65f
11:12pm 5 9 mph 1018.8mb 76f 65f
11:06pm 6 8 mph 1018.9mb 76f 65f
11:00pm 5 8 mph 1018.9mb 76f 65f
10:54pm 6 9 mph 1018.8mb 76f 65f
10:48pm 6 9 mph 1018.8mb 76f 65f
10:42pm 6 7 mph 1018.9mb 76f 65f
10:36pm 6 8 mph 1018.8mb 76f 65f
10:30pm 7 9 mph 1018.8mb 76f 65f
10:24pm 5 8 mph 1018.8mb 76f 65f
10:18pm 5 9 mph 1018.8mb 76f 65f
10:12pm 5 8 mph 1018.8mb 76f 65f
10:06pm 6 9 mph 1018.7mb 76f 65f
10:00pm 8 11 mph 1018.7mb 76f 65f
9:54pm 7 11 mph 1018.7mb 76f 65f
9:48pm 7 13 mph 1018.6mb 76f 65f
9:42pm 6 9 mph 1018.6mb 76f 65f
9:36pm 8 11 mph 1018.6mb 76f 65f
9:30pm 5 10 mph 1018.5mb 76f 65f
9:24pm 8 11 mph 1018.4mb 76f 65f
9:18pm 6 10 mph 1018.3mb 76f 65f
9:12pm 6 11 mph 1018.3mb 76f 65f
9:06pm 7 11 mph 1018.3mb 76f 65f
9:00pm 8 11 mph 1018.3mb 76f 65f
8:54pm 7 10 mph 1018.3mb 76f 66f
8:48pm 7 10 mph 1018.2mb 76f 66f
8:42pm 6 9 mph 1018.2mb 76f 66f
8:36pm 7 13 mph 1018.2mb 76f 66f
8:30pm 7 13 mph 1018.1mb 76f 66f
8:24pm 8 11 mph 1018mb 76f 66f
8:18pm 9 13 mph 1017.9mb 76f 66f
8:12pm 7 9 mph 1017.9mb 76f 67f
8:06pm 7 10 mph 1017.8mb 76f 67f
8:00pm 7 10 mph 1017.8mb 76f 67f
7:54pm 7 13 mph 1017.8mb 76f 67f
7:48pm 7 9 mph 1017.8mb 76f 67f
7:42pm 7 10 mph 1017.7mb 76f 68f
7:36pm 8 10 mph 1017.7mb 76f 68f
7:30pm 7 9 mph 1017.6mb 76f 68f
7:24pm 6 10 mph 1017.6mb 76f 68f
7:18pm 6 9 mph 1017.6mb 76f 68f
7:12pm 6 10 mph 1017.5mb 76f 69f
7:06pm 7 10 mph 1017.5mb 76f 69f
7:00pm 6 10 mph 1017.5mb 76f 69f
6:54pm 7 11 mph 1017.6mb 76f 69f
6:48pm 6 10 mph 1017.5mb 76f 70f
6:42pm 7 10 mph 1017.4mb 76f 70f
6:36pm 7 9 mph 1017.5mb 76f 69f
6:30pm 8 11 mph 1017.5mb 76f 69f
6:24pm 6 9 mph 1017.5mb 76f 70f
6:18pm 8 11 mph 1017.6mb 76f 70f
6:12pm 8 10 mph 1017.5mb 76f 70f
6:06pm 5 10 mph 1017.5mb 76f 71f
6:00pm 7 13 mph 1017.6mb 76f 70f
5:54pm 9 13 mph 1017.6mb 76f 70f
5:48pm 7 10 mph 1017.5mb 76f 71f
5:42pm 5 9 mph 1017.5mb 76f 72f
5:36pm 6 13 mph 1017.5mb 76f 71f
5:30pm 7 11 mph 1017.5mb 76f 71f
5:24pm 8 11 mph 1017.4mb 76f 71f
5:18pm 6 13 mph 1017.3mb 76f 71f
5:12pm 8 11 mph 1017.4mb 76f 71f
5:06pm 5 9 mph 1017.4mb 76f 72f
5:00pm 9 13 mph 1017.4mb 76f 71f
4:54pm 6 9 mph 1017.4mb 76f 71f
4:48pm 7 11 mph 1017.3mb 76f 71f
4:42pm 7 11 mph 1017.3mb 76f 71f
4:36pm 7 10 mph 1017.4mb 76f 71f
4:30pm 7 9 mph 1017.5mb 76f 71f
4:24pm 5 11 mph 1017.5mb 76f 71f
4:18pm 6 11 mph 1017.5mb 76f 71f
4:12pm 5 7 mph 1017.5mb 76f 71f
4:06pm 3 7 mph 1017.4mb 76f 71f
4:00pm 5 8 mph 1017.4mb 76f 71f
3:54pm 3 6 mph 1017.4mb 76f 71f
3:48pm 5 10 mph 1017.5mb 76f 71f
3:42pm 6 11 mph 1017.6mb 76f 71f
3:36pm 5 11 mph 1017.6mb 76f 70f
3:30pm 8 11 mph 1017.7mb 76f 70f
3:24pm 7 10 mph 1017.7mb 76f 70f
3:18pm 7 10 mph 1017.9mb 76f 70f
3:12pm 8 10 mph 1017.8mb 76f 70f
3:06pm 7 10 mph 1017.8mb 76f 70f
3:00pm 3 6 mph 1017.7mb 76f 71f
2:54pm 2 6 mph 1017.7mb 76f 71f
2:48pm 3 6 mph 1017.7mb 76f 71f
2:42pm 2 7 mph 1017.9mb 76f 71f
2:36pm 2 6 mph 1017.8mb 76f 72f
2:30pm 5 7 mph 1017.8mb 75f 71f
2:24pm 5 7 mph 1017.8mb 75f 71f
2:18pm 7 8 mph 1017.9mb 75f 71f
2:12pm 6 7 mph 1018mb 75f 71f
2:06pm 3 8 mph 1018.1mb 75f 71f
2:00pm 5 8 mph 1018.2mb 75f 71f
1:54pm 3 7 mph 1018.2mb 75f 71f
1:48pm 2 8 mph 1018.2mb 75f 71f
1:42pm 5 9 mph 1018.2mb 75f 70f
1:36pm 5 7 mph 1018.3mb 75f 69f
1:30pm 5 8 mph 1018.4mb 75f 70f
1:24pm 5 7 mph 1018.4mb 75f 69f
1:18pm 3 7 mph 1018.5mb 75f 70f
1:12pm 5 9 mph 1018.5mb 75f 68f
1:06pm 5 7 mph 1018.5mb 75f 69f
1:00pm 6 9 mph 1018.6mb 75f 69f
12:54pm 7 8 mph 1018.7mb 75f 68f
12:48pm 5 7 mph 1018.7mb 75f 69f
12:42pm 5 9 mph 1018.7mb 75f 69f
12:36pm 7 10 mph 1018.6mb 75f 68f
12:30pm 7 11 mph 1018.6mb 75f 68f
12:24pm 7 10 mph 1018.6mb 75f 68f
12:18pm 7 11 mph 1018.7mb 75f 68f
12:12pm 9 13 mph 1018.7mb 75f 68f
12:06pm 7 13 mph 1018.7mb 75f 69f
12:00pm 6 11 mph 1018.6mb 75f 69f
11:54am 9 11 mph 1018.6mb 75f 68f
11:48am 6 13 mph 1018.5mb 75f 69f
11:42am 9 14 mph 1018.5mb 75f 68f
11:36am 9 14 mph 1018.6mb 75f 68f
11:30am 8 15 mph 1018.6mb 75f 68f
11:24am 8 14 mph 1018.6mb 75f 68f
11:18am 9 15 mph 1018.6mb 75f 67f
11:12am 8 14 mph 1018.6mb 75f 68f
11:06am 10 14 mph 1018.6mb 75f 67f
11:00am 9 14 mph 1018.6mb 75f 67f
10:54am 9 14 mph 1018.7mb 75f 67f
10:48am 8 11 mph 1018.7mb 75f 67f
10:42am 9 13 mph 1018.8mb 75f 67f
10:36am 8 11 mph 1018.8mb 75f 67f
10:30am 8 13 mph 1018.8mb 75f 67f
10:24am 7 10 mph 1018.8mb 74f 67f
10:18am 8 11 mph 1018.7mb 74f 67f
10:12am 7 10 mph 1018.7mb 74f 66f
10:06am 8 10 mph 1018.7mb 74f 66f
10:00am 7 11 mph 1018.6mb 74f 66f
9:54am 7 11 mph 1018.5mb 74f 66f
9:48am 8 11 mph 1018.4mb 74f 65f
9:42am 8 11 mph 1018.3mb 74f 65f
9:36am 7 10 mph 1018.2mb 74f 65f
9:30am 6 9 mph 1018.2mb 74f 65f
9:24am 7 10 mph 1018.1mb 74f 65f
9:18am 7 10 mph 1018.1mb 74f 64f
9:12am 6 10 mph 1018mb 74f 64f
9:06am 7 9 mph 1018.1mb 74f 64f
9:00am 6 10 mph 1018mb 74f 64f
8:54am 6 10 mph 1018mb 74f 64f
8:48am 9 11 mph 1018mb 74f 64f
8:42am 8 13 mph 1018mb 74f 64f
8:36am 7 10 mph 1017.9mb 74f 64f
8:30am 6 8 mph 1017.8mb 74f 64f
8:24am 5 7 mph 1017.7mb 74f 64f
8:18am 5 7 mph 1017.7mb 74f 64f
8:12am 6 7 mph 1017.7mb 74f 63f
8:06am 6 8 mph 1017.5mb 74f 63f
8:00am 5 8 mph 1017.4mb 74f 63f
7:54am 6 8 mph 1017.3mb 74f 63f
7:48am 5 9 mph 1017.2mb 74f 63f
7:42am 6 8 mph 1017.1mb 74f 63f
7:36am 5 8 mph 1017.1mb 74f 63f
7:30am 6 9 mph 1017.1mb 74f 63f
7:24am 6 8 mph 1017mb 74f 63f
7:18am 6 10 mph 1017mb 74f 63f
7:12am 7 10 mph 1017.1mb 74f 63f
7:06am 9 10 mph 1017.1mb 74f 63f
7:00am 7 13 mph 1016.9mb 74f 63f
6:54am 7 10 mph 1016.9mb 74f 63f
6:48am 5 9 mph 1016.9mb 74f 63f
6:42am 5 10 mph 1016.9mb 74f 63f
6:36am 6 11 mph 1016.9mb 74f 63f
6:30am 5 9 mph 1016.8mb 74f 63f
6:24am 6 10 mph 1016.7mb 74f 63f
6:18am 8 11 mph 1016.6mb 74f 63f
6:12am 7 10 mph 1016.5mb 74f 63f
6:06am 7 11 mph 1016.5mb 74f 64f
6:00am 6 9 mph 1016.5mb 74f 64f
5:54am 6 8 mph 1016.3mb 74f 64f
5:48am 5 7 mph 1016.2mb 74f 64f
5:42am 6 9 mph 1016.1mb 74f 64f
5:36am 6 9 mph 1016mb 74f 64f
5:30am 5 7 mph 1015.9mb 74f 64f
5:24am 6 8 mph 1016mb 74f 63f
5:18am 6 8 mph 1015.9mb 74f 64f
5:12am 5 8 mph 1015.9mb 74f 63f
5:06am 6 9 mph 1015.8mb 74f 63f
5:00am 5 8 mph 1015.8mb 75f 63f
4:54am 6 9 mph 1015.7mb 75f 63f
4:48am 5 8 mph 1015.7mb 75f 63f
4:42am 5 7 mph 1015.7mb 75f 63f
4:36am 5 7 mph 1015.6mb 75f 63f
4:30am 6 9 mph 1015.5mb 75f 63f
4:24am 6 8 mph 1015.5mb 75f 63f
4:18am 7 9 mph 1015.5mb 75f 63f
4:12am 3 7 mph 1015.5mb 75f 64f
4:06am 3 6 mph 1015.4mb 75f 63f
4:00am 5 7 mph 1015.3mb 75f 63f
3:54am 5 7 mph 1015.2mb 75f 63f
3:48am 3 6 mph 1015.2mb 75f 63f
3:42am 3 6 mph 1015.1mb 75f 64f
3:36am 3 6 mph 1015.2mb 75f 63f
3:30am 5 6 mph 1015.2mb 75f 63f
3:24am 3 5 mph 1015.1mb 75f 63f
3:18am 3 6 mph 1015.1mb 75f 63f
3:12am 3 6 mph 1015.2mb 75f 63f
3:06am 5 7 mph 1015.2mb 75f 63f
3:00am 5 8 mph 1015.5mb 75f 63f
2:54am 5 6 mph 1015.6mb 75f 63f
2:48am 6 8 mph 1015.5mb 75f 63f
2:42am 3 6 mph 1015.7mb 75f 64f
2:36am 5 7 mph 1015.8mb 75f 63f
2:30am 3 7 mph 1015.9mb 75f 64f
2:24am 5 8 mph 1015.9mb 75f 64f
2:18am 6 8 mph 1015.9mb 75f 63f
2:12am 6 7 mph 1016.1mb 75f 63f
2:06am 5 8 mph 1016.1mb 75f 63f
2:00am 6 9 mph 1016.2mb 75f 63f
1:54am 5 7 mph 1016.2mb 75f 63f
1:48am 5 7 mph 1016.1mb 75f 63f
1:42am 6 9 mph 1016mb 75f 63f
1:36am 6 9 mph 1016.2mb 75f 63f
1:30am 6 9 mph 1016.3mb 75f 63f
1:24am 7 8 mph 1016.4mb 75f 63f
1:18am 6 8 mph 1016.4mb 75f 63f
1:12am 7 10 mph 1016.5mb 75f 63f
1:06am 5 10 mph 1016.4mb 75f 63f
1:00am 6 9 mph 1016.2mb 75f 63f
12:54am 7 10 mph 1016.3mb 75f 63f
12:48am 5 8 mph 1016.3mb 75f 63f
12:42am 5 6 mph 1016.4mb 75f 63f
12:36am 3 6 mph 1016.3mb 75f 63f
12:30am 2 6 mph 1016.4mb 75f 63f
12:24am 5 9 mph 1016.4mb 75f 63f
12:18am 6 9 mph 1016.4mb 75f 63f
12:12am 7 9 mph 1016.5mb 75f 63f
12:06am 6 11 mph 1016.4mb 75f 63f
12:00am 6 9 mph 1016.3mb 75f 63f
Sat 04/19 11:54pm 6 9 mph 1016.4mb 75f 63f
11:48pm 6 9 mph 1016.4mb 75f 64f
11:42pm 7 10 mph 1016.4mb 75f 64f
11:36pm 7 10 mph 1016.4mb 75f 64f
11:30pm 8 10 mph 1016.3mb 75f 64f
11:24pm 8 13 mph 1016.3mb 75f 64f
11:18pm 8 11 mph 1016.3mb 75f 64f
11:12pm 9 11 mph 1016.3mb 75f 64f
11:06pm 6 10 mph 1016.2mb 75f 64f
11:00pm 7 11 mph 1016.2mb 75f 64f
10:54pm 6 10 mph 1016.2mb 75f 64f
10:48pm 7 13 mph 1016.2mb 75f 64f
10:42pm 8 11 mph 1016.2mb 75f 63f
10:36pm 7 9 mph 1016.1mb 75f 64f
10:30pm 3 7 mph 1016.1mb 75f 64f
10:24pm 6 8 mph 1016mb 75f 64f
10:18pm 6 9 mph 1015.9mb 75f 64f
10:12pm 6 8 mph 1015.9mb 75f 64f
10:06pm 5 10 mph 1015.8mb 75f 64f
10:00pm 8 11 mph 1015.7mb 75f 64f
9:54pm 6 9 mph 1015.6mb 75f 64f
9:48pm 7 8 mph 1015.6mb 75f 64f
9:42pm 8 11 mph 1015.5mb 75f 64f
9:36pm 7 9 mph 1015.5mb 75f 64f
9:30pm 8 11 mph 1015.5mb 75f 64f
9:24pm 6 10 mph 1015.5mb 75f 64f
9:18pm 9 15 mph 1015.4mb 75f 64f
9:12pm 9 14 mph 1015.5mb 75f 64f
9:06pm 8 14 mph 1015.5mb 75f 64f
9:00pm 9 14 mph 1015.5mb 75f 64f
8:54pm 10 15 mph 1015.4mb 75f 64f
8:48pm 10 17 mph 1015.3mb 75f 65f
8:42pm 8 14 mph 1015.3mb 75f 65f
8:36pm 6 14 mph 1015.3mb 76f 65f
8:30pm 9 14 mph 1015.3mb 76f 65f
8:24pm 7 13 mph 1015.2mb 76f 65f
8:18pm 8 13 mph 1015.2mb 76f 65f
8:12pm 8 13 mph 1015.1mb 76f 65f
8:06pm 10 17 mph 1015.1mb 76f 65f